sensor_id;sensor_type;location;lat;lon;timestamp;temperature;humidity
24682;DHT22;12802;53.390;-2.328;2022-10-16T00:01:36;10.20;99.90
24682;DHT22;12802;53.390;-2.328;2022-10-16T00:04:03;10.20;99.90
24682;DHT22;12802;53.390;-2.328;2022-10-16T00:06:30;10.20;99.90
24682;DHT22;12802;53.390;-2.328;2022-10-16T00:08:56;10.20;99.90
24682;DHT22;12802;53.390;-2.328;2022-10-16T00:11:24;10.20;99.90
24682;DHT22;12802;53.390;-2.328;2022-10-16T00:13:52;10.20;99.90
24682;DHT22;12802;53.390;-2.328;2022-10-16T00:16:19;10.20;99.90
24682;DHT22;12802;53.390;-2.328;2022-10-16T00:18:45;10.10;99.90
24682;DHT22;12802;53.390;-2.328;2022-10-16T00:21:18;10.10;99.90
24682;DHT22;12802;53.390;-2.328;2022-10-16T00:23:44;10.10;99.90
24682;DHT22;12802;53.390;-2.328;2022-10-16T00:26:13;10.10;99.90
24682;DHT22;12802;53.390;-2.328;2022-10-16T00:28:40;10.00;99.90
24682;DHT22;12802;53.390;-2.328;2022-10-16T00:31:09;10.10;99.90
24682;DHT22;12802;53.390;-2.328;2022-10-16T00:33:35;10.00;99.90
24682;DHT22;12802;53.390;-2.328;2022-10-16T00:36:03;10.00;99.90
24682;DHT22;12802;53.390;-2.328;2022-10-16T00:38:29;10.00;99.90
24682;DHT22;12802;53.390;-2.328;2022-10-16T00:40:55;10.00;99.90
24682;DHT22;12802;53.390;-2.328;2022-10-16T00:46:31;10.00;99.90
24682;DHT22;12802;53.390;-2.328;2022-10-16T00:51:31;10.00;99.90
24682;DHT22;12802;53.390;-2.328;2022-10-16T00:53:58;9.90;99.90
24682;DHT22;12802;53.390;-2.328;2022-10-16T00:56:24;10.00;99.90
24682;DHT22;12802;53.390;-2.328;2022-10-16T00:58:50;10.00;99.90
24682;DHT22;12802;53.390;-2.328;2022-10-16T01:01:16;9.90;99.90
24682;DHT22;12802;53.390;-2.328;2022-10-16T01:03:42;9.90;99.90
24682;DHT22;12802;53.390;-2.328;2022-10-16T01:08:43;9.80;99.90
24682;DHT22;12802;53.390;-2.328;2022-10-16T01:11:20;9.80;99.90
24682;DHT22;12802;53.390;-2.328;2022-10-16T01:13:54;9.80;99.90
24682;DHT22;12802;53.390;-2.328;2022-10-16T01:16:39;9.80;99.90
24682;DHT22;12802;53.390;-2.328;2022-10-16T01:19:33;9.80;99.90
24682;DHT22;12802;53.390;-2.328;2022-10-16T01:22:03;9.70;99.90
24682;DHT22;12802;53.390;-2.328;2022-10-16T01:24:41;9.70;99.90
24682;DHT22;12802;53.390;-2.328;2022-10-16T01:30:06;9.70;99.90
24682;DHT22;12802;53.390;-2.328;2022-10-16T01:32:43;9.70;99.90
24682;DHT22;12802;53.390;-2.328;2022-10-16T01:35:38;9.70;99.90
24682;DHT22;12802;53.390;-2.328;2022-10-16T01:38:10;9.60;99.90
24682;DHT22;12802;53.390;-2.328;2022-10-16T01:40:40;9.60;99.90
24682;DHT22;12802;53.390;-2.328;2022-10-16T01:43:14;9.60;99.90
24682;DHT22;12802;53.390;-2.328;2022-10-16T01:45:42;9.60;99.90
24682;DHT22;12802;53.390;-2.328;2022-10-16T01:48:12;9.60;99.90
24682;DHT22;12802;53.390;-2.328;2022-10-16T01:50:41;9.60;99.90
24682;DHT22;12802;53.390;-2.328;2022-10-16T01:53:11;9.60;99.90
24682;DHT22;12802;53.390;-2.328;2022-10-16T01:55:41;9.70;99.90
24682;DHT22;12802;53.390;-2.328;2022-10-16T01:58:12;9.70;99.90
24682;DHT22;12802;53.390;-2.328;2022-10-16T02:00:42;9.70;99.90
24682;DHT22;12802;53.390;-2.328;2022-10-16T02:03:10;9.70;99.90
24682;DHT22;12802;53.390;-2.328;2022-10-16T02:05:46;9.70;99.90
24682;DHT22;12802;53.390;-2.328;2022-10-16T02:08:13;9.80;99.90
24682;DHT22;12802;53.390;-2.328;2022-10-16T02:10:39;9.80;99.90
24682;DHT22;12802;53.390;-2.328;2022-10-16T02:13:11;9.70;99.90
24682;DHT22;12802;53.390;-2.328;2022-10-16T02:15:38;9.70;99.90
24682;DHT22;12802;53.390;-2.328;2022-10-16T02:18:05;9.70;99.90
24682;DHT22;12802;53.390;-2.328;2022-10-16T02:20:36;9.70;99.90
24682;DHT22;12802;53.390;-2.328;2022-10-16T02:23:06;9.70;99.90
24682;DHT22;12802;53.390;-2.328;2022-10-16T02:25:37;9.70;99.90
24682;DHT22;12802;53.390;-2.328;2022-10-16T02:28:28;9.70;99.90
24682;DHT22;12802;53.390;-2.328;2022-10-16T02:31:01;9.60;99.90
24682;DHT22;12802;53.390;-2.328;2022-10-16T02:33:29;9.60;99.90
24682;DHT22;12802;53.390;-2.328;2022-10-16T02:35:57;9.60;99.90
24682;DHT22;12802;53.390;-2.328;2022-10-16T02:38:24;9.60;99.90
24682;DHT22;12802;53.390;-2.328;2022-10-16T02:40:51;9.50;99.90
24682;DHT22;12802;53.390;-2.328;2022-10-16T02:43:17;9.50;99.90
24682;DHT22;12802;53.390;-2.328;2022-10-16T02:45:44;9.50;99.90
24682;DHT22;12802;53.390;-2.328;2022-10-16T02:48:09;9.40;99.90
24682;DHT22;12802;53.390;-2.328;2022-10-16T02:50:35;9.40;99.90
24682;DHT22;12802;53.390;-2.328;2022-10-16T02:53:01;9.50;99.90
24682;DHT22;12802;53.390;-2.328;2022-10-16T02:55:27;9.50;99.90
24682;DHT22;12802;53.390;-2.328;2022-10-16T02:57:54;9.50;99.90
24682;DHT22;12802;53.390;-2.328;2022-10-16T03:00:20;9.50;99.90
24682;DHT22;12802;53.390;-2.328;2022-10-16T03:02:46;9.40;99.90
24682;DHT22;12802;53.390;-2.328;2022-10-16T03:05:12;9.40;99.90
24682;DHT22;12802;53.390;-2.328;2022-10-16T03:07:38;9.40;99.90
24682;DHT22;12802;53.390;-2.328;2022-10-16T03:10:05;9.30;99.90
24682;DHT22;12802;53.390;-2.328;2022-10-16T03:12:30;9.20;99.90
24682;DHT22;12802;53.390;-2.328;2022-10-16T03:14:56;9.20;99.90
24682;DHT22;12802;53.390;-2.328;2022-10-16T03:17:23;9.20;99.90
24682;DHT22;12802;53.390;-2.328;2022-10-16T03:19:50;9.10;99.90
24682;DHT22;12802;53.390;-2.328;2022-10-16T03:22:16;9.00;99.90
24682;DHT22;12802;53.390;-2.328;2022-10-16T03:24:41;9.00;99.90
24682;DHT22;12802;53.390;-2.328;2022-10-16T03:27:07;9.00;99.90
24682;DHT22;12802;53.390;-2.328;2022-10-16T03:29:34;8.90;99.90
24682;DHT22;12802;53.390;-2.328;2022-10-16T03:32:01;8.80;99.90
24682;DHT22;12802;53.390;-2.328;2022-10-16T03:34:27;8.80;99.90
24682;DHT22;12802;53.390;-2.328;2022-10-16T03:36:53;8.80;99.90
24682;DHT22;12802;53.390;-2.328;2022-10-16T03:39:19;8.80;99.90
24682;DHT22;12802;53.390;-2.328;2022-10-16T03:41:45;8.70;99.90
24682;DHT22;12802;53.390;-2.328;2022-10-16T03:44:12;8.70;99.90
24682;DHT22;12802;53.390;-2.328;2022-10-16T03:46:38;8.60;99.90
24682;DHT22;12802;53.390;-2.328;2022-10-16T03:49:04;8.60;99.90
24682;DHT22;12802;53.390;-2.328;2022-10-16T03:51:30;8.50;99.90
24682;DHT22;12802;53.390;-2.328;2022-10-16T03:53:55;8.50;99.90
24682;DHT22;12802;53.390;-2.328;2022-10-16T03:56:21;8.50;99.90
24682;DHT22;12802;53.390;-2.328;2022-10-16T03:58:47;8.50;99.90
24682;DHT22;12802;53.390;-2.328;2022-10-16T04:01:12;8.40;99.90
24682;DHT22;12802;53.390;-2.328;2022-10-16T04:03:38;8.50;99.90
24682;DHT22;12802;53.390;-2.328;2022-10-16T04:06:04;8.40;99.90
24682;DHT22;12802;53.390;-2.328;2022-10-16T04:08:30;8.30;99.90
24682;DHT22;12802;53.390;-2.328;2022-10-16T04:10:56;8.30;99.90
24682;DHT22;12802;53.390;-2.328;2022-10-16T04:13:21;8.20;99.90
24682;DHT22;12802;53.390;-2.328;2022-10-16T04:15:47;8.20;99.90
24682;DHT22;12802;53.390;-2.328;2022-10-16T04:18:13;8.10;99.90
24682;DHT22;12802;53.390;-2.328;2022-10-16T04:20:39;8.10;99.90
24682;DHT22;12802;53.390;-2.328;2022-10-16T04:23:04;8.00;99.90
24682;DHT22;12802;53.390;-2.328;2022-10-16T04:25:30;8.00;99.90
24682;DHT22;12802;53.390;-2.328;2022-10-16T04:27:56;7.90;99.90
24682;DHT22;12802;53.390;-2.328;2022-10-16T04:30:22;7.90;99.90
24682;DHT22;12802;53.390;-2.328;2022-10-16T04:32:52;7.90;99.90
24682;DHT22;12802;53.390;-2.328;2022-10-16T04:35:18;7.90;99.90
24682;DHT22;12802;53.390;-2.328;2022-10-16T04:37:45;7.90;99.90
24682;DHT22;12802;53.390;-2.328;2022-10-16T04:40:11;7.90;99.90
24682;DHT22;12802;53.390;-2.328;2022-10-16T04:42:37;7.80;99.90
24682;DHT22;12802;53.390;-2.328;2022-10-16T04:45:05;7.90;99.90
24682;DHT22;12802;53.390;-2.328;2022-10-16T04:47:31;7.90;99.90
24682;DHT22;12802;53.390;-2.328;2022-10-16T04:49:56;7.80;99.90
24682;DHT22;12802;53.390;-2.328;2022-10-16T04:52:22;7.70;99.90
24682;DHT22;12802;53.390;-2.328;2022-10-16T04:54:50;7.70;99.90
24682;DHT22;12802;53.390;-2.328;2022-10-16T04:57:16;7.70;99.90
24682;DHT22;12802;53.390;-2.328;2022-10-16T04:59:42;7.60;99.90
24682;DHT22;12802;53.390;-2.328;2022-10-16T05:02:08;7.60;99.90
24682;DHT22;12802;53.390;-2.328;2022-10-16T05:04:34;7.50;99.90
24682;DHT22;12802;53.390;-2.328;2022-10-16T05:07:00;7.50;99.90
24682;DHT22;12802;53.390;-2.328;2022-10-16T05:09:26;7.50;99.90
24682;DHT22;12802;53.390;-2.328;2022-10-16T05:11:51;7.50;99.90
24682;DHT22;12802;53.390;-2.328;2022-10-16T05:14:17;7.50;99.90
24682;DHT22;12802;53.390;-2.328;2022-10-16T05:16:43;7.50;99.90
24682;DHT22;12802;53.390;-2.328;2022-10-16T05:19:09;7.50;99.90
24682;DHT22;12802;53.390;-2.328;2022-10-16T05:21:35;7.60;99.90
24682;DHT22;12802;53.390;-2.328;2022-10-16T05:24:01;7.50;99.90
24682;DHT22;12802;53.390;-2.328;2022-10-16T05:26:27;7.50;99.90
24682;DHT22;12802;53.390;-2.328;2022-10-16T05:28:52;7.50;99.90
24682;DHT22;12802;53.390;-2.328;2022-10-16T05:31:18;7.50;99.90
24682;DHT22;12802;53.390;-2.328;2022-10-16T05:33:44;7.50;99.90
24682;DHT22;12802;53.390;-2.328;2022-10-16T05:36:11;7.50;99.90
24682;DHT22;12802;53.390;-2.328;2022-10-16T05:38:37;7.40;99.90
24682;DHT22;12802;53.390;-2.328;2022-10-16T05:41:04;7.40;99.90
24682;DHT22;12802;53.390;-2.328;2022-10-16T05:43:31;7.40;99.90
24682;DHT22;12802;53.390;-2.328;2022-10-16T05:46:02;7.40;99.90
24682;DHT22;12802;53.390;-2.328;2022-10-16T05:48:28;7.40;99.90
24682;DHT22;12802;53.390;-2.328;2022-10-16T05:51:03;7.40;99.90
24682;DHT22;12802;53.390;-2.328;2022-10-16T05:53:31;7.40;99.90
24682;DHT22;12802;53.390;-2.328;2022-10-16T05:55:58;7.40;99.90
24682;DHT22;12802;53.390;-2.328;2022-10-16T05:58:27;7.40;99.90
24682;DHT22;12802;53.390;-2.328;2022-10-16T06:01:01;7.30;99.90
24682;DHT22;12802;53.390;-2.328;2022-10-16T06:03:27;7.30;99.90
24682;DHT22;12802;53.390;-2.328;2022-10-16T06:05:53;7.30;99.90
24682;DHT22;12802;53.390;-2.328;2022-10-16T06:08:21;7.30;99.90
24682;DHT22;12802;53.390;-2.328;2022-10-16T06:10:49;7.30;99.90
24682;DHT22;12802;53.390;-2.328;2022-10-16T06:13:25;7.30;99.90
24682;DHT22;12802;53.390;-2.328;2022-10-16T06:15:51;7.30;99.90
24682;DHT22;12802;53.390;-2.328;2022-10-16T06:18:16;7.30;99.90
24682;DHT22;12802;53.390;-2.328;2022-10-16T06:20:42;7.30;99.90
24682;DHT22;12802;53.390;-2.328;2022-10-16T06:23:08;7.40;99.90
24682;DHT22;12802;53.390;-2.328;2022-10-16T06:25:34;7.40;99.90
24682;DHT22;12802;53.390;-2.328;2022-10-16T06:28:00;7.40;99.90
24682;DHT22;12802;53.390;-2.328;2022-10-16T06:30:25;7.30;99.90
24682;DHT22;12802;53.390;-2.328;2022-10-16T06:32:51;7.40;99.90
24682;DHT22;12802;53.390;-2.328;2022-10-16T06:35:17;7.40;99.90
24682;DHT22;12802;53.390;-2.328;2022-10-16T06:37:43;7.50;99.90
24682;DHT22;12802;53.390;-2.328;2022-10-16T06:40:08;7.50;99.90
24682;DHT22;12802;53.390;-2.328;2022-10-16T06:42:34;7.50;99.90
24682;DHT22;12802;53.390;-2.328;2022-10-16T06:45:00;7.40;99.90
24682;DHT22;12802;53.390;-2.328;2022-10-16T06:47:27;7.40;99.90
24682;DHT22;12802;53.390;-2.328;2022-10-16T06:49:53;7.40;99.90
24682;DHT22;12802;53.390;-2.328;2022-10-16T06:52:19;7.40;99.90
24682;DHT22;12802;53.390;-2.328;2022-10-16T06:54:45;7.40;99.90
24682;DHT22;12802;53.390;-2.328;2022-10-16T06:57:10;7.30;99.90
24682;DHT22;12802;53.390;-2.328;2022-10-16T06:59:36;7.30;99.90
24682;DHT22;12802;53.390;-2.328;2022-10-16T07:02:02;7.20;99.90
24682;DHT22;12802;53.390;-2.328;2022-10-16T07:04:28;7.30;99.90
24682;DHT22;12802;53.390;-2.328;2022-10-16T07:06:53;7.40;99.90
24682;DHT22;12802;53.390;-2.328;2022-10-16T07:09:19;7.40;99.90
24682;DHT22;12802;53.390;-2.328;2022-10-16T07:11:45;7.30;99.90
24682;DHT22;12802;53.390;-2.328;2022-10-16T07:14:16;7.30;99.90
24682;DHT22;12802;53.390;-2.328;2022-10-16T07:16:43;7.30;99.90
24682;DHT22;12802;53.390;-2.328;2022-10-16T07:19:09;7.30;99.90
24682;DHT22;12802;53.390;-2.328;2022-10-16T07:21:37;7.30;99.90
24682;DHT22;12802;53.390;-2.328;2022-10-16T07:24:11;7.40;99.90
24682;DHT22;12802;53.390;-2.328;2022-10-16T07:26:38;7.50;99.90
24682;DHT22;12802;53.390;-2.328;2022-10-16T07:29:12;7.50;99.90
24682;DHT22;12802;53.390;-2.328;2022-10-16T07:31:40;7.60;99.90
24682;DHT22;12802;53.390;-2.328;2022-10-16T07:34:06;7.60;99.90
24682;DHT22;12802;53.390;-2.328;2022-10-16T07:36:32;7.70;99.90
24682;DHT22;12802;53.390;-2.328;2022-10-16T07:38:58;7.70;99.90
24682;DHT22;12802;53.390;-2.328;2022-10-16T07:41:23;7.80;99.90
24682;DHT22;12802;53.390;-2.328;2022-10-16T07:43:51;7.80;99.90
24682;DHT22;12802;53.390;-2.328;2022-10-16T07:46:18;7.90;99.90
24682;DHT22;12802;53.390;-2.328;2022-10-16T07:48:44;8.00;99.90
24682;DHT22;12802;53.390;-2.328;2022-10-16T07:51:14;8.00;99.90
24682;DHT22;12802;53.390;-2.328;2022-10-16T07:53:40;8.10;99.90
24682;DHT22;12802;53.390;-2.328;2022-10-16T07:56:07;8.20;99.90
24682;DHT22;12802;53.390;-2.328;2022-10-16T07:58:34;8.20;99.90
24682;DHT22;12802;53.390;-2.328;2022-10-16T08:01:07;8.30;99.90
24682;DHT22;12802;53.390;-2.328;2022-10-16T08:03:33;8.40;99.90
24682;DHT22;12802;53.390;-2.328;2022-10-16T08:06:00;8.50;99.90
24682;DHT22;12802;53.390;-2.328;2022-10-16T08:08:26;8.60;99.90
24682;DHT22;12802;53.390;-2.328;2022-10-16T08:10:52;8.70;99.90
24682;DHT22;12802;53.390;-2.328;2022-10-16T08:13:18;8.80;99.90
24682;DHT22;12802;53.390;-2.328;2022-10-16T08:15:44;9.00;99.90
24682;DHT22;12802;53.390;-2.328;2022-10-16T08:18:12;9.20;99.90
24682;DHT22;12802;53.390;-2.328;2022-10-16T08:20:38;9.30;99.90
24682;DHT22;12802;53.390;-2.328;2022-10-16T08:23:05;9.50;99.90
24682;DHT22;12802;53.390;-2.328;2022-10-16T08:25:31;9.70;99.90
24682;DHT22;12802;53.390;-2.328;2022-10-16T08:27:57;9.90;99.90
24682;DHT22;12802;53.390;-2.328;2022-10-16T08:30:24;10.10;99.90
24682;DHT22;12802;53.390;-2.328;2022-10-16T08:32:50;10.30;99.90
24682;DHT22;12802;53.390;-2.328;2022-10-16T08:35:16;10.50;99.90
24682;DHT22;12802;53.390;-2.328;2022-10-16T08:37:42;10.70;99.90
24682;DHT22;12802;53.390;-2.328;2022-10-16T08:40:29;10.70;99.90
24682;DHT22;12802;53.390;-2.328;2022-10-16T08:48:20;10.70;99.90
24682;DHT22;12802;53.390;-2.328;2022-10-16T08:50:49;10.80;99.90
24682;DHT22;12802;53.390;-2.328;2022-10-16T08:53:22;10.80;99.90
24682;DHT22;12802;53.390;-2.328;2022-10-16T08:55:52;10.90;99.90
24682;DHT22;12802;53.390;-2.328;2022-10-16T08:58:25;11.10;99.90
24682;DHT22;12802;53.390;-2.328;2022-10-16T09:00:57;11.10;99.90
24682;DHT22;12802;53.390;-2.328;2022-10-16T09:12:17;11.30;99.90
24682;DHT22;12802;53.390;-2.328;2022-10-16T09:14:58;11.40;99.90
24682;DHT22;12802;53.390;-2.328;2022-10-16T09:17:30;11.50;99.90
24682;DHT22;12802;53.390;-2.328;2022-10-16T09:22:40;11.60;99.90
24682;DHT22;12802;53.390;-2.328;2022-10-16T09:25:21;11.70;99.90
24682;DHT22;12802;53.390;-2.328;2022-10-16T09:27:48;11.80;99.90
24682;DHT22;12802;53.390;-2.328;2022-10-16T09:30:19;12.00;99.90
24682;DHT22;12802;53.390;-2.328;2022-10-16T09:32:48;12.20;99.90
24682;DHT22;12802;53.390;-2.328;2022-10-16T09:35:16;12.50;99.90
24682;DHT22;12802;53.390;-2.328;2022-10-16T09:37:44;12.80;99.90
24682;DHT22;12802;53.390;-2.328;2022-10-16T09:43:03;13.20;99.90
24682;DHT22;12802;53.390;-2.328;2022-10-16T09:45:31;13.50;99.90
24682;DHT22;12802;53.390;-2.328;2022-10-16T09:48:00;13.80;99.90
24682;DHT22;12802;53.390;-2.328;2022-10-16T09:50:27;13.90;99.90
24682;DHT22;12802;53.390;-2.328;2022-10-16T09:53:13;14.00;99.90
24682;DHT22;12802;53.390;-2.328;2022-10-16T09:55:50;14.00;99.90
24682;DHT22;12802;53.390;-2.328;2022-10-16T09:58:16;14.30;99.90
24682;DHT22;12802;53.390;-2.328;2022-10-16T10:00:49;14.60;99.90
24682;DHT22;12802;53.390;-2.328;2022-10-16T10:06:15;15.10;99.90
24682;DHT22;12802;53.390;-2.328;2022-10-16T10:09:05;15.00;99.90
24682;DHT22;12802;53.390;-2.328;2022-10-16T10:11:50;15.00;99.90
24682;DHT22;12802;53.390;-2.328;2022-10-16T10:16:44;14.70;99.90
24682;DHT22;12802;53.390;-2.328;2022-10-16T10:19:22;14.80;99.90
24682;DHT22;12802;53.390;-2.328;2022-10-16T10:21:49;14.80;99.90
24682;DHT22;12802;53.390;-2.328;2022-10-16T10:24:18;14.70;99.90
24682;DHT22;12802;53.390;-2.328;2022-10-16T10:27:08;14.70;99.90
24682;DHT22;12802;53.390;-2.328;2022-10-16T10:30:03;14.80;99.90
24682;DHT22;12802;53.390;-2.328;2022-10-16T10:35:22;14.70;99.90
24682;DHT22;12802;53.390;-2.328;2022-10-16T10:44:03;14.60;99.90
24682;DHT22;12802;53.390;-2.328;2022-10-16T10:46:33;14.60;99.90
24682;DHT22;12802;53.390;-2.328;2022-10-16T10:54:45;14.50;99.90
24682;DHT22;12802;53.390;-2.328;2022-10-16T11:06:11;14.60;99.90
24682;DHT22;12802;53.390;-2.328;2022-10-16T11:08:42;14.50;99.90
24682;DHT22;12802;53.390;-2.328;2022-10-16T11:16:37;14.20;99.90
24682;DHT22;12802;53.390;-2.328;2022-10-16T11:22:12;14.00;99.90
24682;DHT22;12802;53.390;-2.328;2022-10-16T11:25:01;14.10;99.90
24682;DHT22;12802;53.390;-2.328;2022-10-16T11:27:54;14.00;99.90
24682;DHT22;12802;53.390;-2.328;2022-10-16T11:30:29;14.10;99.90
24682;DHT22;12802;53.390;-2.328;2022-10-16T11:38:18;14.20;99.90
24682;DHT22;12802;53.390;-2.328;2022-10-16T11:40:48;14.20;99.90
24682;DHT22;12802;53.390;-2.328;2022-10-16T11:43:24;14.30;99.90
24682;DHT22;12802;53.390;-2.328;2022-10-16T11:45:52;14.30;99.90
24682;DHT22;12802;53.390;-2.328;2022-10-16T11:51:19;14.40;99.90
24682;DHT22;12802;53.390;-2.328;2022-10-16T11:56:32;14.50;99.90
24682;DHT22;12802;53.390;-2.328;2022-10-16T11:59:07;14.60;99.90
24682;DHT22;12802;53.390;-2.328;2022-10-16T12:04:48;14.20;99.90
24682;DHT22;12802;53.390;-2.328;2022-10-16T12:07:22;14.20;99.90
24682;DHT22;12802;53.390;-2.328;2022-10-16T12:09:50;14.20;99.90
24682;DHT22;12802;53.390;-2.328;2022-10-16T12:15:19;14.20;99.90
24682;DHT22;12802;53.390;-2.328;2022-10-16T12:17:46;14.30;99.90
24682;DHT22;12802;53.390;-2.328;2022-10-16T12:22:52;14.20;99.90
24682;DHT22;12802;53.390;-2.328;2022-10-16T12:25:40;14.20;99.90
24682;DHT22;12802;53.390;-2.328;2022-10-16T12:30:41;14.10;99.90
24682;DHT22;12802;53.390;-2.328;2022-10-16T12:33:25;14.00;99.90
24682;DHT22;12802;53.390;-2.328;2022-10-16T12:35:52;13.80;99.90
24682;DHT22;12802;53.390;-2.328;2022-10-16T12:38:45;13.80;99.90
24682;DHT22;12802;53.390;-2.328;2022-10-16T12:41:11;13.80;99.90
24682;DHT22;12802;53.390;-2.328;2022-10-16T12:43:47;13.90;99.90
24682;DHT22;12802;53.390;-2.328;2022-10-16T12:48:42;13.80;99.90
24682;DHT22;12802;53.390;-2.328;2022-10-16T13:10:34;13.60;99.90
24682;DHT22;12802;53.390;-2.328;2022-10-16T13:21:36;13.50;99.90
24682;DHT22;12802;53.390;-2.328;2022-10-16T13:27:15;13.40;99.90
24682;DHT22;12802;53.390;-2.328;2022-10-16T13:29:44;13.40;99.90
24682;DHT22;12802;53.390;-2.328;2022-10-16T13:32:11;13.40;99.90
24682;DHT22;12802;53.390;-2.328;2022-10-16T13:34:45;13.30;99.90
24682;DHT22;12802;53.390;-2.328;2022-10-16T13:37:23;13.40;99.90
24682;DHT22;12802;53.390;-2.328;2022-10-16T13:39:49;13.50;99.90
24682;DHT22;12802;53.390;-2.328;2022-10-16T13:42:24;13.50;99.90
24682;DHT22;12802;53.390;-2.328;2022-10-16T13:44:53;13.50;99.90
24682;DHT22;12802;53.390;-2.328;2022-10-16T13:47:24;13.40;99.90
24682;DHT22;12802;53.390;-2.328;2022-10-16T13:50:14;13.30;99.90
24682;DHT22;12802;53.390;-2.328;2022-10-16T13:52:40;13.20;99.90
24682;DHT22;12802;53.390;-2.328;2022-10-16T13:55:17;13.20;99.90
24682;DHT22;12802;53.390;-2.328;2022-10-16T13:57:44;13.10;99.90
24682;DHT22;12802;53.390;-2.328;2022-10-16T14:00:22;13.00;99.90
24682;DHT22;12802;53.390;-2.328;2022-10-16T14:03:04;13.10;99.90
24682;DHT22;12802;53.390;-2.328;2022-10-16T14:05:31;13.20;99.90
24682;DHT22;12802;53.390;-2.328;2022-10-16T14:07:58;13.20;99.90
24682;DHT22;12802;53.390;-2.328;2022-10-16T14:10:30;13.20;99.90
24682;DHT22;12802;53.390;-2.328;2022-10-16T14:13:04;13.20;99.90
24682;DHT22;12802;53.390;-2.328;2022-10-16T14:15:32;13.30;99.90
24682;DHT22;12802;53.390;-2.328;2022-10-16T14:18:00;13.40;99.90
24682;DHT22;12802;53.390;-2.328;2022-10-16T14:20:28;13.50;99.90
24682;DHT22;12802;53.390;-2.328;2022-10-16T14:23:20;13.50;99.90
24682;DHT22;12802;53.390;-2.328;2022-10-16T14:25:46;13.50;99.90
24682;DHT22;12802;53.390;-2.328;2022-10-16T14:28:22;13.50;99.90
24682;DHT22;12802;53.390;-2.328;2022-10-16T14:31:00;13.70;99.90
24682;DHT22;12802;53.390;-2.328;2022-10-16T14:38:36;13.80;99.90
24682;DHT22;12802;53.390;-2.328;2022-10-16T14:41:03;13.70;99.90
24682;DHT22;12802;53.390;-2.328;2022-10-16T14:43:36;13.60;99.90
24682;DHT22;12802;53.390;-2.328;2022-10-16T14:51:37;13.50;99.90
24682;DHT22;12802;53.390;-2.328;2022-10-16T14:54:04;13.40;99.90
24682;DHT22;12802;53.390;-2.328;2022-10-16T14:56:34;13.40;99.90
24682;DHT22;12802;53.390;-2.328;2022-10-16T15:01:51;13.40;99.90
24682;DHT22;12802;53.390;-2.328;2022-10-16T15:04:17;13.40;99.90
24682;DHT22;12802;53.390;-2.328;2022-10-16T15:06:44;13.30;99.90
24682;DHT22;12802;53.390;-2.328;2022-10-16T15:09:10;13.30;99.90
24682;DHT22;12802;53.390;-2.328;2022-10-16T15:11:36;13.30;99.90
24682;DHT22;12802;53.390;-2.328;2022-10-16T15:14:02;13.30;99.90
24682;DHT22;12802;53.390;-2.328;2022-10-16T15:16:29;13.30;99.90
24682;DHT22;12802;53.390;-2.328;2022-10-16T15:18:55;13.20;99.90
24682;DHT22;12802;53.390;-2.328;2022-10-16T15:21:31;13.30;99.90
24682;DHT22;12802;53.390;-2.328;2022-10-16T15:23:58;13.20;99.90
24682;DHT22;12802;53.390;-2.328;2022-10-16T15:26:26;13.10;99.90
24682;DHT22;12802;53.390;-2.328;2022-10-16T15:28:53;13.10;99.90
24682;DHT22;12802;53.390;-2.328;2022-10-16T15:31:19;13.10;99.90
24682;DHT22;12802;53.390;-2.328;2022-10-16T15:33:50;13.10;99.90
24682;DHT22;12802;53.390;-2.328;2022-10-16T15:36:29;13.00;99.90
24682;DHT22;12802;53.390;-2.328;2022-10-16T15:38:55;13.10;99.90
24682;DHT22;12802;53.390;-2.328;2022-10-16T15:41:22;13.10;99.90
24682;DHT22;12802;53.390;-2.328;2022-10-16T15:43:49;13.10;99.90
24682;DHT22;12802;53.390;-2.328;2022-10-16T15:46:20;13.10;99.90
24682;DHT22;12802;53.390;-2.328;2022-10-16T15:48:47;13.00;99.90
24682;DHT22;12802;53.390;-2.328;2022-10-16T15:51:13;13.10;99.90
24682;DHT22;12802;53.390;-2.328;2022-10-16T15:53:39;13.00;99.90
24682;DHT22;12802;53.390;-2.328;2022-10-16T15:56:07;13.00;99.90
24682;DHT22;12802;53.390;-2.328;2022-10-16T15:58:33;13.00;99.90
24682;DHT22;12802;53.390;-2.328;2022-10-16T16:01:01;12.90;99.90
24682;DHT22;12802;53.390;-2.328;2022-10-16T16:03:28;12.90;99.90
24682;DHT22;12802;53.390;-2.328;2022-10-16T16:05:54;12.90;99.90
24682;DHT22;12802;53.390;-2.328;2022-10-16T16:08:21;12.80;99.90
24682;DHT22;12802;53.390;-2.328;2022-10-16T16:11:05;12.80;99.90
24682;DHT22;12802;53.390;-2.328;2022-10-16T16:13:32;12.70;99.90
24682;DHT22;12802;53.390;-2.328;2022-10-16T16:15:58;12.60;99.90
24682;DHT22;12802;53.390;-2.328;2022-10-16T16:18:23;12.60;99.90
24682;DHT22;12802;53.390;-2.328;2022-10-16T16:20:52;12.50;99.90
24682;DHT22;12802;53.390;-2.328;2022-10-16T16:23:18;12.50;99.90
24682;DHT22;12802;53.390;-2.328;2022-10-16T16:25:45;12.50;99.90
24682;DHT22;12802;53.390;-2.328;2022-10-16T16:28:27;12.50;99.90
24682;DHT22;12802;53.390;-2.328;2022-10-16T16:30:53;12.40;99.90
24682;DHT22;12802;53.390;-2.328;2022-10-16T16:33:19;12.40;99.90
24682;DHT22;12802;53.390;-2.328;2022-10-16T16:35:44;12.30;99.90
24682;DHT22;12802;53.390;-2.328;2022-10-16T16:38:10;12.30;99.90
24682;DHT22;12802;53.390;-2.328;2022-10-16T16:40:36;12.30;99.90
24682;DHT22;12802;53.390;-2.328;2022-10-16T16:43:02;12.30;99.90
24682;DHT22;12802;53.390;-2.328;2022-10-16T16:45:29;12.20;99.90
24682;DHT22;12802;53.390;-2.328;2022-10-16T16:47:55;12.20;99.90
24682;DHT22;12802;53.390;-2.328;2022-10-16T16:50:21;12.10;99.90
24682;DHT22;12802;53.390;-2.328;2022-10-16T16:52:46;12.10;99.90
24682;DHT22;12802;53.390;-2.328;2022-10-16T16:55:12;12.10;99.90
24682;DHT22;12802;53.390;-2.328;2022-10-16T16:57:38;12.10;99.90
24682;DHT22;12802;53.390;-2.328;2022-10-16T17:00:04;12.10;99.90
24682;DHT22;12802;53.390;-2.328;2022-10-16T17:02:30;12.10;99.90
24682;DHT22;12802;53.390;-2.328;2022-10-16T17:04:56;12.00;99.90
24682;DHT22;12802;53.390;-2.328;2022-10-16T17:07:23;12.00;99.90
24682;DHT22;12802;53.390;-2.328;2022-10-16T17:09:50;12.00;99.90
24682;DHT22;12802;53.390;-2.328;2022-10-16T17:12:16;12.00;99.90
24682;DHT22;12802;53.390;-2.328;2022-10-16T17:14:42;11.90;99.90
24682;DHT22;12802;53.390;-2.328;2022-10-16T17:17:08;11.90;99.90
24682;DHT22;12802;53.390;-2.328;2022-10-16T17:19:33;11.90;99.90
24682;DHT22;12802;53.390;-2.328;2022-10-16T17:21:59;11.90;99.90
24682;DHT22;12802;53.390;-2.328;2022-10-16T17:24:25;11.90;99.90
24682;DHT22;12802;53.390;-2.328;2022-10-16T17:26:51;11.90;99.90
24682;DHT22;12802;53.390;-2.328;2022-10-16T17:29:17;11.90;99.90
24682;DHT22;12802;53.390;-2.328;2022-10-16T17:31:44;11.90;99.90
24682;DHT22;12802;53.390;-2.328;2022-10-16T17:34:10;11.90;99.90
24682;DHT22;12802;53.390;-2.328;2022-10-16T17:36:38;11.80;99.90
24682;DHT22;12802;53.390;-2.328;2022-10-16T17:39:10;11.80;99.90
24682;DHT22;12802;53.390;-2.328;2022-10-16T17:41:36;11.70;99.90
24682;DHT22;12802;53.390;-2.328;2022-10-16T17:44:05;11.70;99.90
24682;DHT22;12802;53.390;-2.328;2022-10-16T17:46:32;11.70;99.90
24682;DHT22;12802;53.390;-2.328;2022-10-16T17:48:59;11.80;99.90
24682;DHT22;12802;53.390;-2.328;2022-10-16T17:51:28;11.80;99.90